Flight Track Log - Related Links

Times and Time Zones

All times are in EDT time to prevent confusion due to time zone crossing. See the RPA3496 flight status page for this flight to view local times or setup timezone preferences in your user account.

Time Position Orientation Groundspeed Altitude Reporting Facility
EDT Latitude Longitude Course Direction KTS MPH feet Rate Location/Type
Thu 12:30:36 PM 42.3667 -70.9833 81° East 144 166 600  Level KA90
Thu 12:32:03 PM 42.3789 -70.8789 81° East 197 227 3,600 2,696 Climbing Boston Center
Thu 12:34:03 PM 42.3500 -70.7000 102° East 279 321 9,900 2,854 Climbing KA90
Thu 12:35:08 PM 42.2608 -70.6669 165° South 294 338 12,400 2,438 Climbing Boston Center
Thu 12:36:11 PM 42.1761 -70.6297 162° South 316 364 15,100 2,516 Climbing Boston Center
Thu 12:37:12 PM 42.0867 -70.6356 183° South 334 384 17,600 2,213 Climbing Boston Center
Thu 12:38:13 PM 41.9978 -70.6761 199° South 336 387 19,600 1,984 Climbing Boston Center
Thu 12:39:16 PM 41.9039 -70.7178 198° South 354 407 21,700 2,177 Climbing Boston Center
Thu 12:40:17 PM 41.7903 -70.7808 202° Southwest 371 427 24,100 2,083 Climbing Boston Center
Thu 12:41:17 PM 41.7000 -70.8500 210° Southwest 372 428 25,900 1,113 Climbing Boston Center
Thu 12:42:21 PM 41.6031 -70.9233 210° Southwest 398 458 26,400 528 Climbing Boston Center
Thu 12:43:22 PM 41.5097 -71.0233 219° Southwest 429 494 27,000 541 Climbing Boston Center
Thu 12:44:23 PM 41.4303 -71.1533 231° Southwest 450 518 27,500 496 Climbing Boston Center
Thu 12:45:23 PM 41.3422 -71.2944 230° Southwest 451 519 28,000 242 Climbing Boston Center
Thu 12:46:27 PM 41.2619 -71.4256 231° Southwest 454 522 28,000  Level Boston Center
Thu 12:47:27 PM 41.1722 -71.5697 230° Southwest 455 524 28,000  Level Boston Center
Thu 12:48:31 PM 41.0994 -71.6856 230° Southwest 456 525 28,000  Level Boston Center
Thu 12:49:32 PM 41.0181 -71.8167 231° Southwest 458 527 28,000  Level Boston Center
Thu 12:50:32 PM 40.9253 -71.9639 230° Southwest 459 528 28,000  Level Boston Center
Thu 12:51:33 PM 40.8419 -72.0936 230° Southwest 459 528 28,000  Level Boston Center
Thu 12:52:36 PM 40.7597 -72.2231 230° Southwest 459 528 28,000  Level Boston Center
Thu 12:53:37 PM 40.6714 -72.3622 230° Southwest 459 528 28,000  Level Boston Center
Thu 12:54:38 PM 40.5883 -72.4914 230° Southwest 459 528 28,000 -871 Level Boston Center
Thu 12:55:41 PM 40.5064 -72.6206 230° Southwest 459 528 26,200 -2,016 Descending Boston Center
Thu 12:56:43 PM 40.4272 -72.7431 230° Southwest 444 511 23,800 -2,195 Descending Boston Center
Thu 12:57:44 PM 40.3522 -72.8569 229° Southwest 418 481 21,700 -1,884 Descending Boston Center
Thu 12:58:44 PM 40.2800 -72.9672 229° Southwest 405 466 20,000 -829 Descending Boston Center
Thu 12:59:47 PM 40.2078 -73.0792 230° Southwest 403 464 20,000  Level Boston Center
Thu 01:00:47 PM 40.1328 -73.1928 229° Southwest 402 463 20,000  Level Boston Center
Thu 01:01:50 PM 40.0592 -73.3039 229° Southwest 402 463 20,000  Level Boston Center
Thu 01:02:51 PM 39.9708 -73.4372 229° Southwest 403 464 20,000  Level Boston Center
Thu 01:03:52 PM 39.9000 -73.5450 229° Southwest 403 464 20,000  Level Boston Center
Thu 01:04:54 PM 39.8292 -73.6564 230° Southwest 402 463 20,000  Level Boston Center
Thu 01:05:55 PM 39.7589 -73.7692 231° Southwest 402 463 20,000 -346 Level Boston Center
Thu 01:06:38 PM 39.7050 -73.8544 231° Southwest 402 463 19,400 -1,385 Descending Washington Center
Thu 01:07:39 PM 39.6397 -73.9586 231° Southwest 384 442 17,600 -1,884 Descending Washington Center
Thu 01:08:39 PM 39.5786 -74.0542 230° Southwest 373 429 15,600 -1,866 Descending Washington Center
Thu 01:09:38 PM 39.5278 -74.1603 238° Southwest 356 410 13,900 -1,300 Descending Washington Center
Thu 01:10:39 PM 39.5272 -74.2894 270° West 339 390 13,000 -1,008 Descending Washington Center
Thu 01:11:37 PM 39.5286 -74.4131 271° West 345 397 11,900 -1,063 Descending Washington Center
Thu 01:13:17 PM 39.5333 -74.6167 272° West 291 335 10,200 -968 Descending Philadelphia TRACON
Thu 01:14:12 PM 39.5333 -74.7000 270° West 295 339 9,400 -632 Descending Philadelphia TRACON
Thu 01:15:11 PM 39.5333 -74.8167 270° West 283 326 9,000 -202 Descending Philadelphia TRACON
Thu 01:16:11 PM 39.5333 -74.9167 270° West 286 329 9,000 -350 Level Philadelphia TRACON
Thu 01:17:11 PM 39.5333 -75.0167 270° West 274 315 8,300 -1,050 Descending Philadelphia TRACON
Thu 01:18:11 PM 39.5167 -75.1000 255° West 270 311 6,900 -1,140 Descending Philadelphia TRACON
Thu 01:19:12 PM 39.5333 -75.2000 282° West 266 306 6,000 -446 Descending Philadelphia TRACON
Thu 01:20:12 PM 39.5500 -75.2833 285° West 239 275 6,000  Level Philadelphia TRACON
Thu 01:21:12 PM 39.6167 -75.3333 330° Northwest 255 293 6,000  Level Philadelphia TRACON
Thu 01:22:12 PM 39.6833 -75.3500 349° North 238 274 6,000 -95 Level Philadelphia TRACON
Thu 01:23:18 PM 39.7333 -75.4167 314° West 209 241 5,800 -500 Descending Philadelphia TRACON
Thu 01:24:12 PM 39.7167 -75.4667 247° West 196 226 5,000 -400 Descending Philadelphia TRACON
Thu 01:25:18 PM 39.7000 -75.5333 252° West 172 198 5,000  Level Philadelphia TRACON
Thu 01:26:18 PM 39.7000 -75.6000 270° West 177 204 5,000 -150 Level Philadelphia TRACON
Thu 01:27:18 PM 39.7000 -75.6667 270° West 204 235 4,700 -500 Descending Philadelphia TRACON
Thu 01:28:18 PM 39.7500 -75.6333 27° Northeast 194 223 4,000 -645 Descending Philadelphia TRACON
Thu 01:29:19 PM 39.8000 -75.5833 38° Northeast 196 226 3,400 -496 Descending Philadelphia TRACON
Thu 01:30:19 PM 39.8167 -75.5333 67° East 169 194 3,000 -250 Descending Philadelphia TRACON
Thu 01:31:19 PM 39.8167 -75.4667 90° East 178 205 2,900 -450 Descending Philadelphia TRACON
Thu 01:32:19 PM 39.8333 -75.4000 72° East 176 203 2,100 -800 Descending Philadelphia TRACON
Thu 01:33:19 PM 39.8500 -75.3500 67° East 146 168 1,300 -750 Descending Philadelphia TRACON
Thu 01:34:19 PM 39.8500 -75.3167 90° East 134 154 600 -700 Descending Philadelphia TRACON
Thu 01:36:00 PM 39.8667 -75.2333 54° Northeast  Level FlightAware Approximate
Thu 01:43:00 PM 39.8722 -75.2409 54° Northeast  Level Estimated

Login

Don't have an account? Register now (free) for customized features, flight alerts, and more!